sensor_id;sensor_type;location;lat;lon;timestamp;pressure;altitude;pressure_sealevel;temperature;humidity
10474;BME280;5284;50.446;7.904;2023-07-30T00:03:18;97890.88;;;16.15;100.00
10474;BME280;5284;50.446;7.904;2023-07-30T00:08:23;97886.41;;;16.08;100.00
10474;BME280;5284;50.446;7.904;2023-07-30T00:13:26;97892.38;;;15.95;100.00
10474;BME280;5284;50.446;7.904;2023-07-30T00:18:30;97903.56;;;15.84;100.00
10474;BME280;5284;50.446;7.904;2023-07-30T00:23:33;97908.53;;;15.73;100.00
10474;BME280;5284;50.446;7.904;2023-07-30T00:28:35;97909.25;;;15.67;100.00
10474;BME280;5284;50.446;7.904;2023-07-30T00:33:41;97910.63;;;15.55;100.00
10474;BME280;5284;50.446;7.904;2023-07-30T00:38:44;97903.28;;;15.49;100.00
10474;BME280;5284;50.446;7.904;2023-07-30T00:43:47;97902.47;;;15.40;100.00
10474;BME280;5284;50.446;7.904;2023-07-30T00:48:51;97911.25;;;15.34;100.00
10474;BME280;5284;50.446;7.904;2023-07-30T00:53:54;97914.09;;;15.25;100.00
10474;BME280;5284;50.446;7.904;2023-07-30T00:58:57;97924.22;;;15.15;100.00
10474;BME280;5284;50.446;7.904;2023-07-30T01:04:02;97938.16;;;15.11;100.00
10474;BME280;5284;50.446;7.904;2023-07-30T01:09:06;97944.09;;;15.06;100.00
10474;BME280;5284;50.446;7.904;2023-07-30T01:14:09;97945.09;;;15.05;100.00
10474;BME280;5284;50.446;7.904;2023-07-30T01:19:14;97946.09;;;15.04;100.00
10474;BME280;5284;50.446;7.904;2023-07-30T01:24:18;97946.09;;;14.96;100.00
10474;BME280;5284;50.446;7.904;2023-07-30T01:29:25;97942.78;;;14.86;100.00
10474;BME280;5284;50.446;7.904;2023-07-30T01:34:34;97954.22;;;14.80;100.00
10474;BME280;5284;50.446;7.904;2023-07-30T01:39:40;97957.06;;;14.79;100.00
10474;BME280;5284;50.446;7.904;2023-07-30T01:44:43;97961.09;;;14.75;100.00
10474;BME280;5284;50.446;7.904;2023-07-30T01:49:46;97963.28;;;14.79;100.00
10474;BME280;5284;50.446;7.904;2023-07-30T01:54:50;97958.22;;;14.84;100.00
10474;BME280;5284;50.446;7.904;2023-07-30T01:59:53;97967.78;;;14.95;100.00
10474;BME280;5284;50.446;7.904;2023-07-30T02:04:57;97971.63;;;15.00;100.00
10474;BME280;5284;50.446;7.904;2023-07-30T02:10:01;97956.97;;;15.11;100.00
10474;BME280;5284;50.446;7.904;2023-07-30T02:15:05;97971.56;;;15.16;100.00
10474;BME280;5284;50.446;7.904;2023-07-30T02:20:09;97978.28;;;15.20;100.00
10474;BME280;5284;50.446;7.904;2023-07-30T02:25:14;97982.28;;;15.24;100.00
10474;BME280;5284;50.446;7.904;2023-07-30T02:30:17;97982.78;;;15.27;100.00
10474;BME280;5284;50.446;7.904;2023-07-30T02:35:21;97976.75;;;15.33;100.00
10474;BME280;5284;50.446;7.904;2023-07-30T02:40:27;97987.16;;;15.36;100.00
10474;BME280;5284;50.446;7.904;2023-07-30T02:45:30;97976.91;;;15.40;100.00
10474;BME280;5284;50.446;7.904;2023-07-30T02:50:33;97978.22;;;15.44;100.00
10474;BME280;5284;50.446;7.904;2023-07-30T02:55:39;97988.28;;;15.50;100.00
10474;BME280;5284;50.446;7.904;2023-07-30T03:00:42;97985.44;;;15.51;100.00
10474;BME280;5284;50.446;7.904;2023-07-30T03:05:45;97992.47;;;15.52;100.00
10474;BME280;5284;50.446;7.904;2023-07-30T03:10:50;97997.34;;;15.49;100.00
10474;BME280;5284;50.446;7.904;2023-07-30T03:15:53;97999.22;;;15.48;100.00
10474;BME280;5284;50.446;7.904;2023-07-30T03:20:58;97999.38;;;15.47;100.00
10474;BME280;5284;50.446;7.904;2023-07-30T03:26:03;98004.91;;;15.45;100.00
10474;BME280;5284;50.446;7.904;2023-07-30T03:31:05;98001.41;;;15.45;100.00
10474;BME280;5284;50.446;7.904;2023-07-30T03:36:09;98001.06;;;15.48;100.00
10474;BME280;5284;50.446;7.904;2023-07-30T03:41:13;97998.19;;;15.49;100.00
10474;BME280;5284;50.446;7.904;2023-07-30T03:46:16;97994.00;;;15.47;100.00
10474;BME280;5284;50.446;7.904;2023-07-30T03:51:19;97985.09;;;15.46;100.00
10474;BME280;5284;50.446;7.904;2023-07-30T03:56:24;98001.41;;;15.45;100.00
10474;BME280;5284;50.446;7.904;2023-07-30T04:01:28;98001.41;;;15.45;100.00
10474;BME280;5284;50.446;7.904;2023-07-30T04:06:32;98017.34;;;15.46;100.00
10474;BME280;5284;50.446;7.904;2023-07-30T04:11:37;98011.97;;;15.46;100.00
10474;BME280;5284;50.446;7.904;2023-07-30T04:16:40;98003.38;;;15.51;100.00
10474;BME280;5284;50.446;7.904;2023-07-30T04:21:45;98000.19;;;15.55;100.00
10474;BME280;5284;50.446;7.904;2023-07-30T04:26:50;98003.69;;;15.56;100.00
10474;BME280;5284;50.446;7.904;2023-07-30T04:31:53;98009.03;;;15.64;100.00
10474;BME280;5284;50.446;7.904;2023-07-30T04:36:56;98010.84;;;15.71;100.00
10474;BME280;5284;50.446;7.904;2023-07-30T04:42:01;98012.00;;;15.77;100.00
10474;BME280;5284;50.446;7.904;2023-07-30T04:47:05;98003.53;;;15.88;100.00
10474;BME280;5284;50.446;7.904;2023-07-30T04:52:10;98010.38;;;15.98;100.00
10474;BME280;5284;50.446;7.904;2023-07-30T04:57:14;98012.50;;;16.11;100.00
10474;BME280;5284;50.446;7.904;2023-07-30T05:02:17;98011.72;;;16.25;100.00
10474;BME280;5284;50.446;7.904;2023-07-30T05:07:20;98000.22;;;16.39;100.00
10474;BME280;5284;50.446;7.904;2023-07-30T05:12:25;97999.44;;;16.53;100.00
10474;BME280;5284;50.446;7.904;2023-07-30T05:17:28;97986.91;;;16.60;100.00
10474;BME280;5284;50.446;7.904;2023-07-30T05:22:31;97996.53;;;16.77;100.00
10474;BME280;5284;50.446;7.904;2023-07-30T05:27:36;97979.94;;;16.88;100.00
10474;BME280;5284;50.446;7.904;2023-07-30T05:32:39;97976.72;;;17.06;100.00
10474;BME280;5284;50.446;7.904;2023-07-30T05:37:42;97989.91;;;17.30;100.00
10474;BME280;5284;50.446;7.904;2023-07-30T05:42:46;97990.41;;;17.63;100.00
10474;BME280;5284;50.446;7.904;2023-07-30T05:47:49;97992.34;;;17.83;100.00
10474;BME280;5284;50.446;7.904;2023-07-30T05:52:52;98001.81;;;17.94;100.00
10474;BME280;5284;50.446;7.904;2023-07-30T05:57:56;97991.06;;;18.00;100.00
10474;BME280;5284;50.446;7.904;2023-07-30T06:02:59;98008.63;;;18.11;100.00
10474;BME280;5284;50.446;7.904;2023-07-30T06:08:02;98011.88;;;18.21;100.00
10474;BME280;5284;50.446;7.904;2023-07-30T06:13:08;98015.66;;;18.61;100.00
10474;BME280;5284;50.446;7.904;2023-07-30T06:18:12;98011.53;;;18.45;100.00
10474;BME280;5284;50.446;7.904;2023-07-30T06:23:16;98021.06;;;18.61;100.00
10474;BME280;5284;50.446;7.904;2023-07-30T06:28:21;98026.22;;;18.56;100.00
10474;BME280;5284;50.446;7.904;2023-07-30T06:33:25;98021.75;;;18.70;100.00
10474;BME280;5284;50.446;7.904;2023-07-30T06:38:31;98028.78;;;18.64;100.00
10474;BME280;5284;50.446;7.904;2023-07-30T06:43:37;98028.78;;;18.64;100.00
10474;BME280;5284;50.446;7.904;2023-07-30T06:48:40;98047.56;;;18.72;100.00
10474;BME280;5284;50.446;7.904;2023-07-30T06:53:43;98052.56;;;18.75;100.00
10474;BME280;5284;50.446;7.904;2023-07-30T06:58:47;98053.47;;;18.82;100.00
10474;BME280;5284;50.446;7.904;2023-07-30T07:03:50;98043.66;;;18.75;100.00
10474;BME280;5284;50.446;7.904;2023-07-30T07:08:53;98044.69;;;18.74;100.00
10474;BME280;5284;50.446;7.904;2023-07-30T07:13:58;98042.69;;;18.61;100.00
10474;BME280;5284;50.446;7.904;2023-07-30T07:19:00;98030.78;;;18.77;100.00
10474;BME280;5284;50.446;7.904;2023-07-30T07:24:04;98031.66;;;18.84;100.00
10474;BME280;5284;50.446;7.904;2023-07-30T07:29:09;98033.97;;;19.08;100.00
10474;BME280;5284;50.446;7.904;2023-07-30T07:34:13;98034.06;;;18.93;100.00
10474;BME280;5284;50.446;7.904;2023-07-30T07:39:16;98045.38;;;18.61;100.00
10474;BME280;5284;50.446;7.904;2023-07-30T07:44:22;98055.63;;;18.31;100.00
10474;BME280;5284;50.446;7.904;2023-07-30T07:49:25;98055.28;;;18.05;100.00
10474;BME280;5284;50.446;7.904;2023-07-30T07:54:29;98051.59;;;17.62;100.00
10474;BME280;5284;50.446;7.904;2023-07-30T07:59:33;98056.81;;;17.49;100.00
10474;BME280;5284;50.446;7.904;2023-07-30T08:04:37;98054.66;;;17.45;100.00
10474;BME280;5284;50.446;7.904;2023-07-30T08:09:40;98059.19;;;17.30;100.00
10474;BME280;5284;50.446;7.904;2023-07-30T08:14:44;98063.47;;;17.02;100.00
10474;BME280;5284;50.446;7.904;2023-07-30T08:19:48;98082.53;;;16.78;100.00
10474;BME280;5284;50.446;7.904;2023-07-30T08:24:51;98096.13;;;16.62;100.00
10474;BME280;5284;50.446;7.904;2023-07-30T08:29:55;98110.41;;;16.32;100.00
10474;BME280;5284;50.446;7.904;2023-07-30T08:34:59;98108.72;;;16.39;100.00
10474;BME280;5284;50.446;7.904;2023-07-30T08:40:02;98109.94;;;16.37;100.00
10474;BME280;5284;50.446;7.904;2023-07-30T08:45:08;98114.94;;;16.32;100.00
10474;BME280;5284;50.446;7.904;2023-07-30T08:50:11;98118.13;;;16.43;100.00
10474;BME280;5284;50.446;7.904;2023-07-30T08:55:14;98126.09;;;16.37;100.00
10474;BME280;5284;50.446;7.904;2023-07-30T09:00:20;98122.19;;;16.31;100.00
10474;BME280;5284;50.446;7.904;2023-07-30T09:05:26;98121.25;;;16.99;100.00
10474;BME280;5284;50.446;7.904;2023-07-30T09:10:31;98127.13;;;17.03;100.00
10474;BME280;5284;50.446;7.904;2023-07-30T09:15:37;98132.88;;;17.00;100.00
10474;BME280;5284;50.446;7.904;2023-07-30T09:20:41;98116.72;;;16.78;100.00
10474;BME280;5284;50.446;7.904;2023-07-30T09:25:47;98135.56;;;17.00;100.00
10474;BME280;5284;50.446;7.904;2023-07-30T09:30:59;98133.69;;;17.45;100.00
10474;BME280;5284;50.446;7.904;2023-07-30T09:36:21;98148.50;;;17.49;100.00
10474;BME280;5284;50.446;7.904;2023-07-30T09:41:25;98158.56;;;17.70;100.00
10474;BME280;5284;50.446;7.904;2023-07-30T09:46:30;98164.91;;;18.06;100.00
10474;BME280;5284;50.446;7.904;2023-07-30T09:51:33;98157.44;;;19.22;100.00
10474;BME280;5284;50.446;7.904;2023-07-30T09:56:40;98159.91;;;19.17;100.00
10474;BME280;5284;50.446;7.904;2023-07-30T10:01:47;98159.16;;;19.50;100.00
10474;BME280;5284;50.446;7.904;2023-07-30T10:06:55;98159.13;;;19.44;100.00
10474;BME280;5284;50.446;7.904;2023-07-30T10:12:00;98170.78;;;19.99;100.00
10474;BME280;5284;50.446;7.904;2023-07-30T10:17:09;98168.34;;;20.38;100.00
10474;BME280;5284;50.446;7.904;2023-07-30T10:22:31;98171.38;;;19.95;100.00
10474;BME280;5284;50.446;7.904;2023-07-30T10:27:36;98168.63;;;20.15;100.00
10474;BME280;5284;50.446;7.904;2023-07-30T10:32:59;98171.19;;;19.96;100.00
10474;BME280;5284;50.446;7.904;2023-07-30T10:38:12;98179.38;;;19.54;98.78
10474;BME280;5284;50.446;7.904;2023-07-30T10:43:16;98185.13;;;19.45;100.00
10474;BME280;5284;50.446;7.904;2023-07-30T10:48:29;98182.72;;;19.56;100.00
10474;BME280;5284;50.446;7.904;2023-07-30T10:53:32;98188.53;;;20.02;100.00
10474;BME280;5284;50.446;7.904;2023-07-30T10:58:37;98190.53;;;20.20;100.00
10474;BME280;5284;50.446;7.904;2023-07-30T11:03:43;98183.53;;;20.79;94.21
10474;BME280;5284;50.446;7.904;2023-07-30T11:08:46;98186.97;;;21.07;91.95
10474;BME280;5284;50.446;7.904;2023-07-30T11:13:49;98189.09;;;21.18;90.31
10474;BME280;5284;50.446;7.904;2023-07-30T11:18:53;98199.31;;;20.69;89.94
10474;BME280;5284;50.446;7.904;2023-07-30T11:23:56;98196.13;;;20.93;88.44
10474;BME280;5284;50.446;7.904;2023-07-30T11:28:59;98205.38;;;20.71;90.57
10474;BME280;5284;50.446;7.904;2023-07-30T11:34:04;98204.41;;;21.45;86.03
10474;BME280;5284;50.446;7.904;2023-07-30T11:39:08;98198.53;;;21.42;82.82
10474;BME280;5284;50.446;7.904;2023-07-30T11:44:29;98197.84;;;22.69;81.31
10474;BME280;5284;50.446;7.904;2023-07-30T11:49:34;98205.53;;;22.79;74.71
10474;BME280;5284;50.446;7.904;2023-07-30T11:54:37;98203.47;;;22.74;76.75
10474;BME280;5284;50.446;7.904;2023-07-30T11:59:40;98207.44;;;22.78;73.18
10474;BME280;5284;50.446;7.904;2023-07-30T12:04:46;98219.41;;;23.52;70.99
10474;BME280;5284;50.446;7.904;2023-07-30T12:10:12;98228.53;;;23.64;67.01
10474;BME280;5284;50.446;7.904;2023-07-30T12:15:15;98230.31;;;22.45;70.26
10474;BME280;5284;50.446;7.904;2023-07-30T12:20:19;98234.13;;;22.18;71.31
10474;BME280;5284;50.446;7.904;2023-07-30T12:25:22;98241.63;;;21.64;71.90
10474;BME280;5284;50.446;7.904;2023-07-30T12:30:26;98236.19;;;22.03;73.36
10474;BME280;5284;50.446;7.904;2023-07-30T12:35:31;98244.34;;;23.55;63.20
10474;BME280;5284;50.446;7.904;2023-07-30T12:40:34;98243.56;;;23.48;62.38
10474;BME280;5284;50.446;7.904;2023-07-30T12:45:36;98221.16;;;24.44;59.98
10474;BME280;5284;50.446;7.904;2023-07-30T12:50:42;98230.13;;;25.70;57.17
10474;BME280;5284;50.446;7.904;2023-07-30T12:55:45;98229.09;;;26.24;54.85
10474;BME280;5284;50.446;7.904;2023-07-30T13:00:48;98239.53;;;27.46;52.26
10474;BME280;5284;50.446;7.904;2023-07-30T13:05:53;98244.97;;;27.86;52.43
10474;BME280;5284;50.446;7.904;2023-07-30T13:10:56;98240.53;;;28.13;49.28
10474;BME280;5284;50.446;7.904;2023-07-30T13:15:59;98238.69;;;28.18;49.25
10474;BME280;5284;50.446;7.904;2023-07-30T13:21:04;98242.47;;;25.91;53.08
10474;BME280;5284;50.446;7.904;2023-07-30T13:26:08;98242.75;;;24.03;59.88
10474;BME280;5284;50.446;7.904;2023-07-30T13:31:11;98247.19;;;23.98;63.40
10474;BME280;5284;50.446;7.904;2023-07-30T13:36:16;98253.47;;;22.73;64.81
10474;BME280;5284;50.446;7.904;2023-07-30T13:41:20;98242.66;;;22.34;66.92
10474;BME280;5284;50.446;7.904;2023-07-30T13:46:24;98241.31;;;21.33;71.29
10474;BME280;5284;50.446;7.904;2023-07-30T13:51:31;98237.28;;;23.41;64.56
10474;BME280;5284;50.446;7.904;2023-07-30T13:56:34;98234.50;;;23.11;60.81
10474;BME280;5284;50.446;7.904;2023-07-30T14:01:37;98240.19;;;23.77;59.02
10474;BME280;5284;50.446;7.904;2023-07-30T14:06:42;98228.69;;;27.68;49.11
10474;BME280;5284;50.446;7.904;2023-07-30T14:11:45;98223.53;;;29.67;45.87
10474;BME280;5284;50.446;7.904;2023-07-30T14:16:48;98224.59;;;29.92;43.93
10474;BME280;5284;50.446;7.904;2023-07-30T14:21:57;98221.84;;;26.75;47.95
10474;BME280;5284;50.446;7.904;2023-07-30T14:27:00;98235.75;;;27.36;46.74
10474;BME280;5284;50.446;7.904;2023-07-30T14:32:04;98239.41;;;25.69;50.74
10474;BME280;5284;50.446;7.904;2023-07-30T14:37:09;98228.56;;;24.97;53.73
10474;BME280;5284;50.446;7.904;2023-07-30T14:42:13;98227.94;;;24.84;52.08
10474;BME280;5284;50.446;7.904;2023-07-30T14:47:15;98221.03;;;27.25;47.48
10474;BME280;5284;50.446;7.904;2023-07-30T14:52:20;98223.59;;;26.81;46.81
10474;BME280;5284;50.446;7.904;2023-07-30T14:57:24;98225.47;;;28.15;45.05
10474;BME280;5284;50.446;7.904;2023-07-30T15:02:27;98222.59;;;32.50;39.43
10474;BME280;5284;50.446;7.904;2023-07-30T15:07:32;98226.06;;;27.05;44.29
10474;BME280;5284;50.446;7.904;2023-07-30T15:12:37;98215.97;;;26.14;46.87
10474;BME280;5284;50.446;7.904;2023-07-30T15:17:40;98222.78;;;23.85;50.34
10474;BME280;5284;50.446;7.904;2023-07-30T15:22:44;98220.44;;;25.86;47.71
10474;BME280;5284;50.446;7.904;2023-07-30T15:27:47;98220.78;;;23.67;52.17
10474;BME280;5284;50.446;7.904;2023-07-30T15:32:51;98218.13;;;24.16;52.92
10474;BME280;5284;50.446;7.904;2023-07-30T15:37:55;98215.16;;;27.33;45.13
10474;BME280;5284;50.446;7.904;2023-07-30T15:43:00;98217.59;;;28.35;42.99
10474;BME280;5284;50.446;7.904;2023-07-30T15:48:03;98228.63;;;28.23;44.88
10474;BME280;5284;50.446;7.904;2023-07-30T15:53:08;98221.25;;;24.13;52.54
10474;BME280;5284;50.446;7.904;2023-07-30T15:58:10;98218.59;;;23.51;54.21
10474;BME280;5284;50.446;7.904;2023-07-30T16:03:13;98223.66;;;24.28;52.69
10474;BME280;5284;50.446;7.904;2023-07-30T16:08:18;98211.19;;;23.28;56.78
10474;BME280;5284;50.446;7.904;2023-07-30T16:13:21;98225.88;;;22.70;58.14
10474;BME280;5284;50.446;7.904;2023-07-30T16:18:25;98232.06;;;30.55;42.02
10474;BME280;5284;50.446;7.904;2023-07-30T16:23:29;98233.66;;;32.35;38.50
10474;BME280;5284;50.446;7.904;2023-07-30T16:28:32;98224.50;;;35.53;35.71
10474;BME280;5284;50.446;7.904;2023-07-30T16:33:38;98228.78;;;35.22;34.82
10474;BME280;5284;50.446;7.904;2023-07-30T16:38:42;98231.69;;;35.77;35.31
10474;BME280;5284;50.446;7.904;2023-07-30T16:43:46;98227.50;;;31.83;37.86
10474;BME280;5284;50.446;7.904;2023-07-30T16:48:49;98243.75;;;29.56;39.85
10474;BME280;5284;50.446;7.904;2023-07-30T16:53:53;98225.72;;;30.18;39.75
10474;BME280;5284;50.446;7.904;2023-07-30T16:58:57;98235.56;;;27.14;43.28
10474;BME280;5284;50.446;7.904;2023-07-30T17:04:00;98239.94;;;31.90;37.83
10474;BME280;5284;50.446;7.904;2023-07-30T17:09:05;98238.25;;;29.83;39.29
10474;BME280;5284;50.446;7.904;2023-07-30T17:14:08;98239.84;;;28.22;41.95
10474;BME280;5284;50.446;7.904;2023-07-30T17:19:12;98240.63;;;26.60;45.51
10474;BME280;5284;50.446;7.904;2023-07-30T17:24:17;98248.06;;;25.37;48.17
10474;BME280;5284;50.446;7.904;2023-07-30T17:29:20;98246.16;;;24.23;50.26
10474;BME280;5284;50.446;7.904;2023-07-30T17:34:23;98250.59;;;23.93;51.41
10474;BME280;5284;50.446;7.904;2023-07-30T17:39:27;98252.50;;;23.12;54.00
10474;BME280;5284;50.446;7.904;2023-07-30T17:44:30;98254.91;;;22.82;55.59
10474;BME280;5284;50.446;7.904;2023-07-30T17:49:33;98247.88;;;22.36;58.20
10474;BME280;5284;50.446;7.904;2023-07-30T17:54:38;98241.66;;;21.96;59.21
10474;BME280;5284;50.446;7.904;2023-07-30T17:59:41;98240.19;;;21.81;60.36
10474;BME280;5284;50.446;7.904;2023-07-30T18:04:44;98247.81;;;21.45;62.86
10474;BME280;5284;50.446;7.904;2023-07-30T18:09:49;98253.75;;;21.02;64.70
10474;BME280;5284;50.446;7.904;2023-07-30T18:14:52;98247.00;;;20.91;65.90
10474;BME280;5284;50.446;7.904;2023-07-30T18:19:56;98257.00;;;20.50;68.54
10474;BME280;5284;50.446;7.904;2023-07-30T18:25:00;98253.00;;;20.13;71.12
10474;BME280;5284;50.446;7.904;2023-07-30T18:30:04;98257.72;;;20.04;72.22
10474;BME280;5284;50.446;7.904;2023-07-30T18:35:09;98266.03;;;19.82;73.53
10474;BME280;5284;50.446;7.904;2023-07-30T18:40:13;98257.19;;;19.73;73.09
10474;BME280;5284;50.446;7.904;2023-07-30T18:45:17;98267.84;;;19.54;74.22
10474;BME280;5284;50.446;7.904;2023-07-30T18:50:20;98273.16;;;19.47;74.33
10474;BME280;5284;50.446;7.904;2023-07-30T18:55:24;98272.44;;;19.39;74.86
10474;BME280;5284;50.446;7.904;2023-07-30T19:00:27;98282.34;;;19.32;74.40
10474;BME280;5284;50.446;7.904;2023-07-30T19:05:30;98286.03;;;19.24;75.80
10474;BME280;5284;50.446;7.904;2023-07-30T19:10:36;98286.78;;;19.18;75.25
10474;BME280;5284;50.446;7.904;2023-07-30T19:15:39;98288.84;;;19.16;74.86
10474;BME280;5284;50.446;7.904;2023-07-30T19:20:41;98289.56;;;19.10;75.48
10474;BME280;5284;50.446;7.904;2023-07-30T19:25:49;98284.38;;;19.09;74.89
10474;BME280;5284;50.446;7.904;2023-07-30T19:30:52;98290.50;;;19.03;75.23
10474;BME280;5284;50.446;7.904;2023-07-30T19:35:55;98300.22;;;18.97;76.11
10474;BME280;5284;50.446;7.904;2023-07-30T19:40:59;98299.38;;;18.97;75.83
10474;BME280;5284;50.446;7.904;2023-07-30T19:46:12;98307.88;;;18.94;76.14
10474;BME280;5284;50.446;7.904;2023-07-30T19:51:17;98303.88;;;18.90;76.87
10474;BME280;5284;50.446;7.904;2023-07-30T19:56:21;98309.00;;;18.85;77.56
10474;BME280;5284;50.446;7.904;2023-07-30T20:01:25;98311.06;;;18.83;77.33
10474;BME280;5284;50.446;7.904;2023-07-30T20:06:28;98295.59;;;18.77;78.13
10474;BME280;5284;50.446;7.904;2023-07-30T20:11:33;98295.13;;;18.73;78.25
10474;BME280;5284;50.446;7.904;2023-07-30T20:16:37;98301.72;;;18.71;79.03
10474;BME280;5284;50.446;7.904;2023-07-30T20:21:41;98309.56;;;18.66;79.86
10474;BME280;5284;50.446;7.904;2023-07-30T20:26:47;98314.69;;;18.61;80.96
10474;BME280;5284;50.446;7.904;2023-07-30T20:31:50;98315.63;;;18.39;85.15
10474;BME280;5284;50.446;7.904;2023-07-30T20:36:53;98306.09;;;18.29;87.06
10474;BME280;5284;50.446;7.904;2023-07-30T20:41:58;98297.50;;;18.25;87.48
10474;BME280;5284;50.446;7.904;2023-07-30T20:47:01;98297.22;;;18.20;87.78
10474;BME280;5284;50.446;7.904;2023-07-30T20:52:05;98295.91;;;18.16;87.76
10474;BME280;5284;50.446;7.904;2023-07-30T20:57:09;98279.03;;;18.14;88.89
10474;BME280;5284;50.446;7.904;2023-07-30T21:02:12;98278.75;;;18.09;90.67
10474;BME280;5284;50.446;7.904;2023-07-30T21:07:15;98293.16;;;18.02;93.49
10474;BME280;5284;50.446;7.904;2023-07-30T21:12:21;98289.91;;;17.92;98.00
10474;BME280;5284;50.446;7.904;2023-07-30T21:17:24;98289.56;;;17.72;100.00
10474;BME280;5284;50.446;7.904;2023-07-30T21:22:27;98286.59;;;17.59;100.00
10474;BME280;5284;50.446;7.904;2023-07-30T21:27:32;98275.97;;;17.43;100.00
10474;BME280;5284;50.446;7.904;2023-07-30T21:32:35;98282.72;;;17.31;100.00
10474;BME280;5284;50.446;7.904;2023-07-30T21:37:39;98264.81;;;17.16;100.00
10474;BME280;5284;50.446;7.904;2023-07-30T21:42:43;98260.13;;;17.10;100.00
10474;BME280;5284;50.446;7.904;2023-07-30T21:47:46;98255.81;;;17.01;100.00
10474;BME280;5284;50.446;7.904;2023-07-30T21:52:50;98255.28;;;17.05;100.00
10474;BME280;5284;50.446;7.904;2023-07-30T21:57:54;98252.31;;;16.92;100.00
10474;BME280;5284;50.446;7.904;2023-07-30T22:02:57;98260.84;;;16.74;100.00
10474;BME280;5284;50.446;7.904;2023-07-30T22:08:00;98248.66;;;16.86;100.00
10474;BME280;5284;50.446;7.904;2023-07-30T22:13:05;98246.97;;;16.85;100.00
10474;BME280;5284;50.446;7.904;2023-07-30T22:18:09;98246.31;;;16.83;100.00
10474;BME280;5284;50.446;7.904;2023-07-30T22:23:12;98243.78;;;16.81;100.00
10474;BME280;5284;50.446;7.904;2023-07-30T22:28:16;98228.84;;;16.79;100.00
10474;BME280;5284;50.446;7.904;2023-07-30T22:33:19;98224.94;;;16.81;100.00
10474;BME280;5284;50.446;7.904;2023-07-30T22:38:22;98227.47;;;16.83;100.00
10474;BME280;5284;50.446;7.904;2023-07-30T22:43:26;98219.38;;;16.83;100.00
10474;BME280;5284;50.446;7.904;2023-07-30T22:48:29;98218.38;;;16.84;100.00
10474;BME280;5284;50.446;7.904;2023-07-30T22:53:32;98216.69;;;16.83;100.00
10474;BME280;5284;50.446;7.904;2023-07-30T22:58:36;98220.41;;;16.82;100.00
10474;BME280;5284;50.446;7.904;2023-07-30T23:03:39;98212.47;;;16.80;100.00
10474;BME280;5284;50.446;7.904;2023-07-30T23:08:43;98225.94;;;16.80;100.00
10474;BME280;5284;50.446;7.904;2023-07-30T23:13:48;98232.34;;;16.79;100.00
10474;BME280;5284;50.446;7.904;2023-07-30T23:18:51;98224.47;;;16.78;100.00
10474;BME280;5284;50.446;7.904;2023-07-30T23:23:54;98217.75;;;16.74;100.00
10474;BME280;5284;50.446;7.904;2023-07-30T23:28:59;98208.66;;;16.75;100.00
10474;BME280;5284;50.446;7.904;2023-07-30T23:34:03;98206.63;;;16.77;100.00
10474;BME280;5284;50.446;7.904;2023-07-30T23:39:06;98203.94;;;16.77;100.00
10474;BME280;5284;50.446;7.904;2023-07-30T23:44:10;98214.88;;;16.75;100.00
10474;BME280;5284;50.446;7.904;2023-07-30T23:49:14;98210.69;;;16.73;100.00
10474;BME280;5284;50.446;7.904;2023-07-30T23:54:17;98201.59;;;16.74;100.00
10474;BME280;5284;50.446;7.904;2023-07-30T23:59:21;98208.81;;;16.73;100.00
